Briefing drone pour Saint-marcel-les-valence

Rechercher une autre localisation

Conditions de vol :


Nous sommes le : Samedi 26 septembre 2020
Il est 16:08 UTC (18:08 LT)

Lever de soleil : 05:05 UTC (07:05 LT)
Coucher de soleil : 17:56 UTC (19:56 LT)

Météo

L'essentiel des conditions de vol

VIGILANCE MÉTÉO FRANCE - Drôme (26)
Pas de vigilances particulieres
METAR de LFLU
LFLU 261600Z AUTO 05014G24KT 9999 FEW038/// ///TCU 10/05 Q1008

Date d'émission: 26/09/2020
Heure d'émission: 16:00 UTC
Vent: 050° pour 14 KT (26 km/h) rafales pour 24 KT (44 km/h)
Visibilité horizontale: > 10 km
Plafond :
- Peu de nuages à 3800ft (1158m)
Température: 10 °C
Point de rosée: 5 °C
Humidité: 71%
Pression (QNH): 1008 hPa
Prévision 24h pour Valence (3 km)
Vent : 99° pour 1 KT (5 km/h)
Temperature Maxi: 10 °C
Temperature Min: 10 °C
Humidité : 75%
Condition : Légère pluie



Warning: count(): Parameter must be an array or an object that implements Countable in /homepages/6/d509196549/htdocs/droneoxygene/briefing.php on line 743
WEBCAM POUR SAINT-MARCEL-LES-VALENCE

Réglementation

Voler en sécurité

CARTES AERONAUTIQUE 1/500.000
CARTES VAC (LFLU)
SUP AIP




Chargement des AIP...
NOTAM (SAINT-MARCEL-LES-VALENCE + Terrain à proximité / FIR )




Chargement des NOTAMS...
CONTACT PREFECTURE 26
Drôme (26) : ddt-sdsr@drome.gouv.fr


Avertissement : Les données mises à disposition sont indicatives. Oxygène Drone ne pourra être tenu responsable de dégâts causés aux biens et aux personnes.